METAR Data
IDs: Format: Raw Decoded Include TAF

Data at: 0051 UTC 20 Jul 2019

METAR for:KFSW (Fort Madison Muni, IA, US)
Text:KFSW 200035Z AUTO 19009KT 10SM CLR 32/27 A2980 RMK AO2
Temperature: 32.0°C ( 90°F)
Dewpoint: 27.0°C ( 81°F) [RH = 75%]
Pressure (altimeter):29.80 inches Hg (1009.2 mb)
Winds:from the S (190 degrees) at 10 MPH (9 knots; 4.6 m/s)
Visibility:10 or more sm (16+ km)
Ceiling:at least 12,000 feet AGL
Clouds:sky clear below 12,000 feet AGL
QC Flag:automated observation with no human augmentation